Aviation Digital Data Service (ADDS)

Output produced by METARs form (1540 UTC 18 January 2018)
found at http://aviationweather.gov/adds/metars/
 
KMCB 181138Z 1812/1912 01005KT P6SM SKC